Time;durP1;ratioP1;P1;durP2;ratioP2;P2;SDS_P1;SDS_P2;PMS_P1;PMS_P2;Temp;Humidity;BMP_temperature;BMP_pressure;BME280_temperature;BME280_humidity;BME280_pressure;Samples;Min_cycle;Max_cycle;Signal;HPM_P1;HPM_P2
2022/08/10 00:02:16;;;;;;;2.20;1.10;;;;;;;;;;4983637;28;20033;-66
2022/08/10 00:04:41;;;;;;;1.85;1.00;;;;;;;;;;4968114;28;20456;-66
2022/08/10 00:07:07;;;;;;;2.25;0.93;;;;;;;;;;4966435;28;20468;-65
2022/08/10 00:09:33;;;;;;;2.13;1.05;;;;;;;;;;4966652;28;20395;-70
2022/08/10 00:11:59;;;;;;;1.20;1.02;;;;;;;;;;4966944;28;20534;-65
2022/08/10 00:14:24;;;;;;;1.65;1.30;;;;;;;;;;4966439;28;20464;-66
2022/08/10 00:16:49;;;;;;;1.25;1.00;;;;;;;;;;4966565;28;20033;-66
2022/08/10 00:19:15;;;;;;;2.05;0.90;;;;;;;;;;4971265;28;20419;-66
2022/08/10 00:21:40;;;;;;;1.83;1.30;;;;;;;;;;4970438;28;20443;-66
2022/08/10 00:24:06;;;;;;;2.15;1.17;;;;;;;;;;4972331;28;20305;-65
2022/08/10 00:26:31;;;;;;;1.70;1.15;;;;;;;;;;4970316;28;20591;-65
2022/08/10 00:28:57;;;;;;;1.98;1.30;;;;;;;;;;4969881;28;20476;-66
2022/08/10 00:31:22;;;;;;;1.10;1.00;;;;;;;;;;4970062;28;20575;-66
2022/08/10 00:33:47;;;;;;;1.63;1.00;;;;;;;;;;4970147;28;20322;-66
2022/08/10 00:36:13;;;;;;;3.15;1.23;;;;;;;;;;4972182;28;20389;-66
2022/08/10 00:38:38;;;;;;;2.17;1.38;;;;;;;;;;4970045;28;20466;-67
2022/08/10 00:41:04;;;;;;;3.08;1.30;;;;;;;;;;4971565;28;20420;-66
2022/08/10 00:43:29;;;;;;;3.28;1.20;;;;;;;;;;4969870;28;20456;-66
2022/08/10 00:45:54;;;;;;;1.40;0.98;;;;;;;;;;4970382;28;20336;-66
2022/08/10 00:48:20;;;;;;;2.53;1.45;;;;;;;;;;4971253;28;20447;-65
2022/08/10 00:50:46;;;;;;;3.13;1.17;;;;;;;;;;4969753;28;20084;-66
2022/08/10 00:53:11;;;;;;;3.38;0.98;;;;;;;;;;4969783;28;20349;-66
2022/08/10 00:55:37;;;;;;;1.20;1.00;;;;;;;;;;4984759;28;20119;-65
2022/08/10 00:58:02;;;;;;;2.55;1.60;;;;;;;;;;4984677;28;20466;-65
2022/08/10 01:00:28;;;;;;;1.75;1.00;;;;;;;;;;4969967;28;20463;-65
2022/08/10 01:02:54;;;;;;;2.58;1.40;;;;;;;;;;4955976;28;20092;-66
2022/08/10 01:05:20;;;;;;;2.90;1.50;;;;;;;;;;4970942;28;20393;-67
2022/08/10 01:08:07;;;;;;;1.83;1.10;;;;;;;;;;4968584;28;20504;-65
2022/08/10 01:10:43;;;;;;;1.90;1.25;;;;;;;;;;4969436;28;20053;-65
2022/08/10 01:13:27;;;;;;;2.45;1.25;;;;;;;;;;4967959;28;20595;-66
2022/08/10 01:15:55;;;;;;;1.65;1.08;;;;;;;;;;4969588;28;20432;-65
2022/08/10 01:18:29;;;;;;;2.30;1.13;;;;;;;;;;4969904;28;20436;-66
2022/08/10 01:21:32;;;;;;;2.15;1.23;;;;;;;;;;4969462;28;20451;-66
2022/08/10 01:24:04;;;;;;;1.52;1.10;;;;;;;;;;4969081;28;20388;-66
2022/08/10 01:26:50;;;;;;;1.27;0.93;;;;;;;;;;4967699;28;20481;-66
2022/08/10 01:29:44;;;;;;;1.23;1.08;;;;;;;;;;4967029;28;20050;-66
2022/08/10 01:32:10;;;;;;;1.80;1.30;;;;;;;;;;4969379;28;20017;-66
2022/08/10 01:34:43;;;;;;;2.35;1.20;;;;;;;;;;4967721;28;20394;-65
2022/08/10 01:37:12;;;;;;;1.50;1.15;;;;;;;;;;4967677;28;20029;-66
2022/08/10 01:39:42;;;;;;;;;;;;;;;;;;4968083;28;20418;-65
2022/08/10 01:42:11;;;;;;;3.00;1.10;;;;;;;;;;4967607;28;20296;-66
2022/08/10 01:44:44;;;;;;;1.77;1.10;;;;;;;;;;4967629;28;20448;-66
2022/08/10 01:50:04;;;;;;;1.52;1.17;;;;;;;;;;4967409;28;20530;-67
2022/08/10 01:52:30;;;;;;;2.30;1.05;;;;;;;;;;4967447;28;20061;-65
2022/08/10 01:54:57;;;;;;;2.03;1.05;;;;;;;;;;4968179;28;20396;-65
2022/08/10 01:57:24;;;;;;;1.05;0.95;;;;;;;;;;4968622;28;20428;-66
2022/08/10 01:59:51;;;;;;;2.03;1.20;;;;;;;;;;4967156;28;20392;-66
2022/08/10 02:02:17;;;;;;;4.45;1.30;;;;;;;;;;4968351;28;20429;-65
2022/08/10 02:04:46;;;;;;;2.92;1.48;;;;;;;;;;4969881;28;20309;-66
2022/08/10 02:07:15;;;;;;;2.10;1.00;;;;;;;;;;4967241;28;20427;-66
2022/08/10 02:09:41;;;;;;;;;;;;;;;;;;4967429;28;20048;-65
2022/08/10 02:12:13;;;;;;;2.03;1.00;;;;;;;;;;4967676;28;20428;-66
2022/08/10 02:14:44;;;;;;;1.20;1.00;;;;;;;;;;4950462;28;20329;-67
2022/08/10 02:17:12;;;;;;;3.60;1.40;;;;;;;;;;4966823;28;20018;-66
2022/08/10 02:19:38;;;;;;;1.33;0.95;;;;;;;;;;4967217;28;20440;-66
2022/08/10 02:22:06;;;;;;;3.25;1.33;;;;;;;;;;4968066;28;20448;-66
2022/08/10 02:24:33;;;;;;;1.58;1.17;;;;;;;;;;4967203;28;20076;-65
2022/08/10 02:26:59;;;;;;;1.40;1.17;;;;;;;;;;4967309;28;20523;-65
2022/08/10 02:29:25;;;;;;;3.95;1.38;;;;;;;;;;4965932;28;20456;-66
2022/08/10 02:31:50;;;;;;;1.80;1.30;;;;;;;;;;4969994;28;20393;-65
2022/08/10 02:34:16;;;;;;;1.35;0.93;;;;;;;;;;4966315;28;20437;-65
2022/08/10 02:36:46;;;;;;;1.55;1.33;;;;;;;;;;4967885;28;20048;-71
2022/08/10 02:39:12;;;;;;;1.80;1.20;;;;;;;;;;4968902;28;20451;-65
2022/08/10 02:41:49;;;;;;;2.00;1.10;;;;;;;;;;4966220;28;20108;-66
2022/08/10 02:44:27;;;;;;;2.13;1.17;;;;;;;;;;4966225;28;20399;-67
2022/08/10 02:47:07;;;;;;;1.75;1.15;;;;;;;;;;4966474;28;20371;-66
2022/08/10 02:49:48;;;;;;;6.70;1.50;;;;;;;;;;4966616;28;20439;-65
2022/08/10 02:52:19;;;;;;;4.60;1.45;;;;;;;;;;4967656;28;20432;-65
2022/08/10 02:54:51;;;;;;;1.35;0.98;;;;;;;;;;4967535;28;20463;-66
2022/08/10 02:57:27;;;;;;;2.85;1.10;;;;;;;;;;4966307;28;20048;-66
2022/08/10 02:59:57;;;;;;;3.75;1.30;;;;;;;;;;4965946;28;20425;-66
2022/08/10 03:02:37;;;;;;;2.70;1.45;;;;;;;;;;4967884;28;20468;-66
2022/08/10 03:05:06;;;;;;;1.45;1.27;;;;;;;;;;4967480;28;20432;-66
2022/08/10 03:07:39;;;;;;;2.05;1.40;;;;;;;;;;4965955;28;20395;-66
2022/08/10 03:10:06;;;;;;;1.67;1.10;;;;;;;;;;4967228;28;20456;-65
2022/08/10 03:12:34;;;;;;;1.70;1.25;;;;;;;;;;4965951;28;20440;-65
2022/08/10 03:15:00;;;;;;;2.67;1.20;;;;;;;;;;4967223;28;20461;-65
2022/08/10 03:17:25;;;;;;;1.90;1.13;;;;;;;;;;4969160;28;20424;-65
2022/08/10 03:19:52;;;;;;;1.63;1.10;;;;;;;;;;4965735;28;20352;-65
2022/08/10 03:22:18;;;;;;;3.13;1.42;;;;;;;;;;4965782;28;20022;-66
2022/08/10 03:24:43;;;;;;;2.10;1.55;;;;;;;;;;4967186;28;20421;-66
2022/08/10 03:27:10;;;;;;;2.58;1.48;;;;;;;;;;4966971;28;20464;-65
2022/08/10 03:29:36;;;;;;;2.10;1.30;;;;;;;;;;4965004;28;20518;-65
2022/08/10 03:32:03;;;;;;;2.53;1.25;;;;;;;;;;4965794;28;20507;-66
2022/08/10 03:34:29;;;;;;;1.45;1.05;;;;;;;;;;4968984;28;20440;-65
2022/08/10 03:36:54;;;;;;;2.20;1.50;;;;;;;;;;4966934;28;20415;-67
2022/08/10 03:39:20;;;;;;;1.85;1.17;;;;;;;;;;4966249;28;20442;-66
2022/08/10 03:41:54;;;;;;;1.83;1.30;;;;;;;;;;4966837;28;20455;-66
2022/08/10 03:44:22;;;;;;;2.17;1.30;;;;;;;;;;4965522;28;20349;-66
2022/08/10 03:46:48;;;;;;;6.93;1.52;;;;;;;;;;4965196;28;20480;-66
2022/08/10 03:49:16;;;;;;;3.17;1.35;;;;;;;;;;4965276;28;20432;-66
2022/08/10 03:51:42;;;;;;;2.58;1.20;;;;;;;;;;4965316;28;20126;-65
2022/08/10 03:54:08;;;;;;;2.55;1.25;;;;;;;;;;4964542;28;20479;-66
2022/08/10 03:56:35;;;;;;;2.28;1.30;;;;;;;;;;4965255;28;20175;-66
2022/08/10 03:59:01;;;;;;;1.80;1.35;;;;;;;;;;4964987;28;20161;-65
2022/08/10 04:01:27;;;;;;;2.58;1.48;;;;;;;;;;4967833;28;20041;-66
2022/08/10 04:03:52;;;;;;;1.98;1.10;;;;;;;;;;4968233;28;20130;-65
2022/08/10 04:06:17;;;;;;;2.60;1.45;;;;;;;;;;4964992;28;20042;-66
2022/08/10 04:08:43;;;;;;;1.60;1.40;;;;;;;;;;4965747;28;20387;-65
2022/08/10 04:11:10;;;;;;;1.63;1.10;;;;;;;;;;4966935;28;20353;-67
2022/08/10 04:13:35;;;;;;;1.83;1.33;;;;;;;;;;4967759;28;20424;-65
2022/08/10 04:16:01;;;;;;;1.70;1.13;;;;;;;;;;4966441;28;20183;-65
2022/08/10 04:18:26;;;;;;;1.75;1.38;;;;;;;;;;4968528;28;20336;-65
2022/08/10 04:20:55;;;;;;;3.53;1.40;;;;;;;;;;4966379;28;20482;-65
2022/08/10 04:23:24;;;;;;;2.58;1.60;;;;;;;;;;4966387;28;20056;-65
2022/08/10 04:25:51;;;;;;;2.08;1.38;;;;;;;;;;4966786;28;20332;-65
2022/08/10 04:28:17;;;;;;;2.50;1.58;;;;;;;;;;4964386;28;20472;-66
2022/08/10 04:30:43;;;;;;;3.17;1.42;;;;;;;;;;4964906;28;20376;-66
2022/08/10 04:33:10;;;;;;;2.30;1.45;;;;;;;;;;4966753;28;20460;-66
2022/08/10 04:35:36;;;;;;;1.40;1.00;;;;;;;;;;4964860;28;20095;-65
2022/08/10 04:38:02;;;;;;;1.20;1.10;;;;;;;;;;4966343;28;20360;-66
2022/08/10 04:40:28;;;;;;;2.80;1.15;;;;;;;;;;4964888;28;20400;-66
2022/08/10 04:42:53;;;;;;;2.47;1.70;;;;;;;;;;4967330;28;20351;-67
2022/08/10 04:45:19;;;;;;;2.20;1.20;;;;;;;;;;4966311;28;20026;-66
2022/08/10 04:47:44;;;;;;;3.03;1.75;;;;;;;;;;4966257;28;20088;-66
2022/08/10 04:50:10;;;;;;;2.47;1.50;;;;;;;;;;4966256;28;20452;-66
2022/08/10 04:52:35;;;;;;;3.03;1.25;;;;;;;;;;4964795;28;20459;-66
2022/08/10 04:55:01;;;;;;;2.10;1.17;;;;;;;;;;4967434;28;20438;-66
2022/08/10 04:57:26;;;;;;;2.70;1.48;;;;;;;;;;4966801;28;20336;-65
2022/08/10 04:59:52;;;;;;;2.30;1.58;;;;;;;;;;4966218;28;20436;-66
2022/08/10 05:02:17;;;;;;;2.05;1.13;;;;;;;;;;4966329;28;20025;-66
2022/08/10 05:04:43;;;;;;;2.42;1.20;;;;;;;;;;4966301;28;20415;-66
2022/08/10 05:07:09;;;;;;;3.03;1.35;;;;;;;;;;4969972;28;20436;-65
2022/08/10 05:09:36;;;;;;;3.78;1.23;;;;;;;;;;4969611;28;20430;-65
2022/08/10 05:12:02;;;;;;;4.68;1.40;;;;;;;;;;4969532;28;20483;-65
2022/08/10 05:14:27;;;;;;;1.73;1.35;;;;;;;;;;4971363;28;20355;-65
2022/08/10 05:16:52;;;;;;;4.28;1.83;;;;;;;;;;4969482;28;20380;-66
2022/08/10 05:19:18;;;;;;;1.65;1.20;;;;;;;;;;4969462;28;20383;-66
2022/08/10 05:21:44;;;;;;;2.17;1.60;;;;;;;;;;4968691;28;20090;-66
2022/08/10 05:24:10;;;;;;;5.22;2.33;;;;;;;;;;4969342;28;20339;-66
2022/08/10 05:26:35;;;;;;;9.55;2.67;;;;;;;;;;4969159;28;20029;-66
2022/08/10 05:29:00;;;;;;;5.45;2.42;;;;;;;;;;4968930;28;20046;-65
2022/08/10 05:31:26;;;;;;;5.45;2.50;;;;;;;;;;4970057;28;20518;-68
2022/08/10 05:33:51;;;;;;;8.98;2.60;;;;;;;;;;4967883;28;20423;-65
2022/08/10 05:36:17;;;;;;;7.78;2.60;;;;;;;;;;4969026;28;20460;-65
2022/08/10 05:38:43;;;;;;;7.38;2.42;;;;;;;;;;4967744;28;20457;-67
2022/08/10 05:41:08;;;;;;;5.50;2.05;;;;;;;;;;4967303;28;20444;-65
2022/08/10 05:43:34;;;;;;;3.92;1.98;;;;;;;;;;4967775;28;20347;-66
2022/08/10 05:45:59;;;;;;;4.72;2.38;;;;;;;;;;4970845;28;20372;-65
2022/08/10 05:48:24;;;;;;;6.32;2.83;;;;;;;;;;4969084;28;20326;-65
2022/08/10 05:50:50;;;;;;;7.47;2.38;;;;;;;;;;4968618;28;20470;-66
2022/08/10 05:53:15;;;;;;;4.32;2.10;;;;;;;;;;4968818;28;20400;-66
2022/08/10 05:55:41;;;;;;;5.18;2.30;;;;;;;;;;4969874;28;20317;-65
2022/08/10 05:58:06;;;;;;;4.70;2.47;;;;;;;;;;4969746;28;20447;-65
2022/08/10 06:00:33;;;;;;;9.18;2.45;;;;;;;;;;4968627;28;20407;-65
2022/08/10 06:03:01;;;;;;;3.63;1.98;;;;;;;;;;4968004;28;20507;-66
2022/08/10 06:05:33;;;;;;;4.28;2.40;;;;;;;;;;4967093;28;20444;-66
2022/08/10 06:08:15;;;;;;;5.03;2.10;;;;;;;;;;4968468;28;20515;-66
2022/08/10 06:10:43;;;;;;;8.40;2.22;;;;;;;;;;4967269;28;20388;-66
2022/08/10 06:15:54;;;;;;;6.30;2.03;;;;;;;;;;4969085;28;20535;-66
2022/08/10 06:18:19;;;;;;;5.00;2.08;;;;;;;;;;4966559;28;20444;-65
2022/08/10 06:20:45;;;;;;;4.47;1.67;;;;;;;;;;4968242;28;20506;-66
2022/08/10 06:23:12;;;;;;;5.72;2.45;;;;;;;;;;4968581;28;20343;-65
2022/08/10 06:25:38;;;;;;;4.25;2.25;;;;;;;;;;4968122;28;20491;-66
2022/08/10 06:28:06;;;;;;;5.22;1.92;;;;;;;;;;4967838;28;20485;-65
2022/08/10 06:30:33;;;;;;;4.70;1.83;;;;;;;;;;4966717;28;20026;-65
2022/08/10 06:32:59;;;;;;;2.92;1.83;;;;;;;;;;4968285;28;20435;-66
2022/08/10 06:35:27;;;;;;;4.55;1.95;;;;;;;;;;4966424;28;20431;-65
2022/08/10 06:37:55;;;;;;;6.47;2.03;;;;;;;;;;4966432;28;20401;-66
2022/08/10 06:40:20;;;;;;;2.88;1.65;;;;;;;;;;4966713;28;20387;-66
2022/08/10 06:42:47;;;;;;;6.45;2.83;;;;;;;;;;4966331;28;20048;-65
2022/08/10 06:45:16;;;;;;;2.50;1.63;;;;;;;;;;4966242;28;20022;-65
2022/08/10 06:47:50;;;;;;;3.50;1.95;;;;;;;;;;4966238;28;20467;-65
2022/08/10 06:50:19;;;;;;;3.65;2.15;;;;;;;;;;4967895;28;20344;-65
2022/08/10 06:52:45;;;;;;;5.88;2.47;;;;;;;;;;4967791;28;20424;-65
2022/08/10 06:55:12;;;;;;;4.43;2.08;;;;;;;;;;4966288;28;20538;-65
2022/08/10 06:57:39;;;;;;;3.47;1.85;;;;;;;;;;4967722;28;20470;-66
2022/08/10 07:00:06;;;;;;;3.70;2.30;;;;;;;;;;4966126;28;20029;-65
2022/08/10 07:02:46;;;;;;;5.45;1.85;;;;;;;;;;4965879;28;20437;-65
2022/08/10 07:05:16;;;;;;;3.65;1.85;;;;;;;;;;4966512;28;20052;-66
2022/08/10 07:07:42;;;;;;;3.45;1.50;;;;;;;;;;4967189;28;20021;-65
2022/08/10 07:10:09;;;;;;;4.47;2.03;;;;;;;;;;4967296;28;20541;-67
2022/08/10 07:12:35;;;;;;;3.85;1.52;;;;;;;;;;4966570;28;20340;-65
2022/08/10 07:15:01;;;;;;;2.72;1.50;;;;;;;;;;4965944;28;20369;-65
2022/08/10 07:17:27;;;;;;;3.97;1.70;;;;;;;;;;4967505;28;20428;-65
2022/08/10 07:19:57;;;;;;;4.68;1.92;;;;;;;;;;4966349;28;20451;-65
2022/08/10 07:22:25;;;;;;;3.15;1.48;;;;;;;;;;4966098;28;20503;-65
2022/08/10 07:24:53;;;;;;;7.55;1.83;;;;;;;;;;4965803;28;20387;-66
2022/08/10 07:27:18;;;;;;;2.78;1.50;;;;;;;;;;4965187;28;20084;-66
2022/08/10 07:29:44;;;;;;;2.72;1.83;;;;;;;;;;4964838;28;20460;-65
2022/08/10 07:32:11;;;;;;;4.05;1.83;;;;;;;;;;4966620;28;20464;-66
2022/08/10 07:34:37;;;;;;;2.75;1.60;;;;;;;;;;4965498;28;20051;-66
2022/08/10 07:37:07;;;;;;;3.40;1.98;;;;;;;;;;4965454;28;20432;-68
2022/08/10 07:39:36;;;;;;;4.70;1.88;;;;;;;;;;4965511;28;20636;-66
2022/08/10 07:42:03;;;;;;;2.90;1.60;;;;;;;;;;4968300;28;20531;-65
2022/08/10 07:44:30;;;;;;;3.03;1.63;;;;;;;;;;4965462;28;20526;-65
2022/08/10 07:46:57;;;;;;;3.38;1.92;;;;;;;;;;4965318;28;20029;-65
2022/08/10 07:49:27;;;;;;;2.88;1.80;;;;;;;;;;4967345;28;20329;-65
2022/08/10 07:51:55;;;;;;;3.60;1.60;;;;;;;;;;4965251;28;20463;-65
2022/08/10 07:54:24;;;;;;;2.95;1.83;;;;;;;;;;4965336;28;20360;-66
2022/08/10 07:56:52;;;;;;;4.00;1.80;;;;;;;;;;4965085;28;20347;-67
2022/08/10 07:59:24;;;;;;;3.50;1.70;;;;;;;;;;4965334;28;20456;-66
2022/08/10 08:01:54;;;;;;;2.20;1.48;;;;;;;;;;4966741;28;20114;-66
2022/08/10 08:04:21;;;;;;;4.85;2.10;;;;;;;;;;4966707;28;20444;-66
2022/08/10 08:06:47;;;;;;;3.17;1.50;;;;;;;;;;4964917;28;20380;-66
2022/08/10 08:09:13;;;;;;;3.88;1.58;;;;;;;;;;4964953;28;20340;-66
2022/08/10 08:11:41;;;;;;;3.38;1.50;;;;;;;;;;4966550;28;20376;-66
2022/08/10 08:14:07;;;;;;;2.95;1.50;;;;;;;;;;4966732;28;20460;-66
2022/08/10 08:16:34;;;;;;;3.08;1.38;;;;;;;;;;4966775;28;20402;-67
2022/08/10 08:19:00;;;;;;;1.98;1.23;;;;;;;;;;4965164;28;20033;-66
2022/08/10 08:21:26;;;;;;;1.63;1.30;;;;;;;;;;4965054;28;20531;-65
2022/08/10 08:23:53;;;;;;;2.85;1.42;;;;;;;;;;4965246;28;20108;-65
2022/08/10 08:26:20;;;;;;;2.13;1.30;;;;;;;;;;4965941;28;20423;-66
2022/08/10 08:28:47;;;;;;;13.30;2.13;;;;;;;;;;4965085;28;20041;-65
2022/08/10 08:31:14;;;;;;;2.30;1.23;;;;;;;;;;4964955;28;20464;-66
2022/08/10 08:33:40;;;;;;;3.63;1.65;;;;;;;;;;4964709;28;20441;-66
2022/08/10 08:36:06;;;;;;;1.58;1.35;;;;;;;;;;4965568;28;20464;-65
2022/08/10 08:38:34;;;;;;;3.03;1.60;;;;;;;;;;4965055;28;20396;-65
2022/08/10 08:41:25;;;;;;;2.08;1.33;;;;;;;;;;4970105;28;20640;-65
2022/08/10 08:44:08;;;;;;;2.65;1.40;;;;;;;;;;4972202;28;20337;-66
2022/08/10 08:47:01;;;;;;;2.20;1.27;;;;;;;;;;4968662;28;20033;-65
2022/08/10 08:49:44;;;;;;;2.80;1.50;;;;;;;;;;4969025;28;20415;-65
2022/08/10 08:52:28;;;;;;;1.92;1.38;;;;;;;;;;4968734;28;20462;-66
2022/08/10 08:55:32;;;;;;;5.28;1.30;;;;;;;;;;4970094;28;20444;-65
2022/08/10 08:58:13;;;;;;;3.45;1.35;;;;;;;;;;4969743;28;20041;-65
2022/08/10 09:01:08;;;;;;;2.95;1.00;;;;;;;;;;4970119;28;20069;-66
2022/08/10 09:03:49;;;;;;;4.40;1.20;;;;;;;;;;4968078;28;20456;-66
2022/08/10 09:06:50;;;;;;;2.22;1.10;;;;;;;;;;4969536;28;20456;-65
2022/08/10 09:09:36;;;;;;;1.65;1.10;;;;;;;;;;4970367;28;20478;-65
2022/08/10 09:12:30;;;;;;;2.25;1.25;;;;;;;;;;4968015;28;20510;-65
2022/08/10 09:14:59;;;;;;;2.45;1.25;;;;;;;;;;4970133;28;20462;-65
2022/08/10 09:17:48;;;;;;;1.67;0.95;;;;;;;;;;4969569;28;20429;-66
2022/08/10 09:20:31;;;;;;;2.30;1.25;;;;;;;;;;4968122;28;20452;-65
2022/08/10 09:23:02;;;;;;;3.40;1.40;;;;;;;;;;4968165;28;20436;-66
2022/08/10 09:25:44;;;;;;;1.65;1.00;;;;;;;;;;4968058;28;20506;-66
2022/08/10 09:28:16;;;;;;;3.03;1.10;;;;;;;;;;4968781;28;20034;-65
2022/08/10 09:31:01;;;;;;;2.10;1.23;;;;;;;;;;4967716;28;20348;-66
2022/08/10 09:33:44;;;;;;;1.65;1.25;;;;;;;;;;4969295;28;20483;-66
2022/08/10 09:36:11;;;;;;;2.08;1.23;;;;;;;;;;4969219;28;20498;-66
2022/08/10 09:38:58;;;;;;;2.92;1.17;;;;;;;;;;4969330;28;20029;-66
2022/08/10 09:41:26;;;;;;;2.22;1.30;;;;;;;;;;4969219;28;20423;-66
2022/08/10 09:44:18;;;;;;;6.40;0.80;;;;;;;;;;4970179;28;20447;-65
2022/08/10 09:47:22;;;;;;;3.17;1.20;;;;;;;;;;4967950;28;20428;-66
2022/08/10 09:50:07;;;;;;;1.98;1.25;;;;;;;;;;4969364;28;20550;-65
2022/08/10 09:53:05;;;;;;;2.10;1.00;;;;;;;;;;4966707;28;20436;-65
2022/08/10 09:55:36;;;;;;;1.88;1.10;;;;;;;;;;4967520;28;20595;-65
2022/08/10 09:58:33;;;;;;;2.83;1.52;;;;;;;;;;4968616;28;20395;-65
2022/08/10 10:01:16;;;;;;;2.33;1.00;;;;;;;;;;4969445;28;20416;-66
2022/08/10 10:03:54;;;;;;;2.00;1.20;;;;;;;;;;4968584;28;20522;-66
2022/08/10 10:06:24;;;;;;;1.90;0.93;;;;;;;;;;4968766;28;20336;-66
2022/08/10 10:09:09;;;;;;;1.80;1.02;;;;;;;;;;4968486;28;20503;-66
2022/08/10 10:12:05;;;;;;;2.08;1.13;;;;;;;;;;4968418;28;20475;-66
2022/08/10 10:15:18;;;;;;;1.05;0.95;;;;;;;;;;4967337;28;20100;-66
2022/08/10 10:17:41;;;;;;;2.08;1.20;;;;;;;;;;4968682;28;20523;-66
2022/08/10 10:20:37;;;;;;;3.00;1.27;;;;;;;;;;4966976;28;20483;-66
2022/08/10 10:23:25;;;;;;;3.10;1.33;;;;;;;;;;4968984;28;20459;-66
2022/08/10 10:26:02;;;;;;;1.80;1.42;;;;;;;;;;4968584;28;20087;-66
2022/08/10 10:28:58;;;;;;;2.72;1.42;;;;;;;;;;4968049;28;20136;-66
2022/08/10 10:31:26;;;;;;;1.33;1.00;;;;;;;;;;4966398;28;20112;-66
2022/08/10 10:34:08;;;;;;;1.20;0.95;;;;;;;;;;4968080;28;20471;-65
2022/08/10 10:36:33;;;;;;;1.52;0.73;;;;;;;;;;4967260;28;20138;-68
2022/08/10 10:39:00;;;;;;;1.48;1.23;;;;;;;;;;4966293;28;20534;-66
2022/08/10 10:42:04;;;;;;;1.55;1.10;;;;;;;;;;4966345;28;20366;-66
2022/08/10 10:44:45;;;;;;;1.75;1.10;;;;;;;;;;4965037;28;20224;-65
2022/08/10 10:47:41;;;;;;;1.52;1.02;;;;;;;;;;4968134;28;20494;-65
2022/08/10 10:50:25;;;;;;;5.65;1.02;;;;;;;;;;4968519;28;20360;-66
2022/08/10 10:53:07;;;;;;;1.50;0.90;;;;;;;;;;4968060;28;20088;-66
2022/08/10 10:55:48;;;;;;;2.85;1.00;;;;;;;;;;4968761;28;20026;-66
2022/08/10 10:58:36;;;;;;;2.50;1.25;;;;;;;;;;4966374;28;20449;-65
2022/08/10 11:01:19;;;;;;;2.00;1.20;;;;;;;;;;4967609;28;20458;-65
2022/08/10 11:03:51;;;;;;;1.83;1.38;;;;;;;;;;4969624;28;20532;-66
2022/08/10 11:06:53;;;;;;;1.30;0.88;;;;;;;;;;4967586;28;20352;-66
2022/08/10 11:09:28;;;;;;;1.40;0.90;;;;;;;;;;4967387;28;20029;-66
2022/08/10 11:11:56;;;;;;;4.65;1.25;;;;;;;;;;4966322;28;20624;-66
2022/08/10 11:14:29;;;;;;;1.35;0.93;;;;;;;;;;4967594;28;20071;-66
2022/08/10 11:17:15;;;;;;;1.42;0.90;;;;;;;;;;4966358;28;20423;-66
2022/08/10 11:20:14;;;;;;;1.17;0.80;;;;;;;;;;4966113;28;20379;-66
2022/08/10 11:23:09;;;;;;;1.63;0.90;;;;;;;;;;4965734;28;20103;-67
2022/08/10 11:25:40;;;;;;;1.63;0.90;;;;;;;;;;4967202;28;20131;-66
2022/08/10 11:28:19;;;;;;;1.23;0.82;;;;;;;;;;4964999;28;20371;-69
2022/08/10 11:30:53;;;;;;;0.73;0.65;;;;;;;;;;4965736;28;20037;-66
2022/08/10 11:33:43;;;;;;;1.45;0.68;;;;;;;;;;4968537;28;20449;-67
2022/08/10 11:36:40;;;;;;;3.30;1.70;;;;;;;;;;4966458;28;20459;-66
2022/08/10 11:39:39;;;;;;;2.03;0.70;;;;;;;;;;4967173;28;20029;-64
2022/08/10 11:42:36;;;;;;;0.60;0.40;;;;;;;;;;4967432;28;20462;-66
2022/08/10 11:45:15;;;;;;;1.17;0.63;;;;;;;;;;4967338;28;20545;-63
2022/08/10 11:47:49;;;;;;;0.88;0.70;;;;;;;;;;4966862;28;20338;-64
2022/08/10 11:50:20;;;;;;;1.23;0.68;;;;;;;;;;4966173;28;20179;-64
2022/08/10 11:52:55;;;;;;;1.45;0.80;;;;;;;;;;4965934;28;20377;-66
2022/08/10 11:55:23;;;;;;;2.50;0.65;;;;;;;;;;4968228;28;20033;-66
2022/08/10 11:57:50;;;;;;;1.48;1.15;;;;;;;;;;4967165;28;20440;-69
2022/08/10 12:00:16;;;;;;;0.70;0.55;;;;;;;;;;4965976;28;20403;-66
2022/08/10 12:02:54;;;;;;;1.10;0.70;;;;;;;;;;4967142;28;20468;-66
2022/08/10 12:05:29;;;;;;;0.90;0.70;;;;;;;;;;4965815;28;20450;-67
2022/08/10 12:07:56;;;;;;;1.15;0.80;;;;;;;;;;4949188;28;20421;-67
2022/08/10 12:10:22;;;;;;;1.58;0.65;;;;;;;;;;4965389;28;20109;-66
2022/08/10 12:13:14;;;;;;;1.63;0.80;;;;;;;;;;4967032;28;20044;-66
2022/08/10 12:15:53;;;;;;;1.15;0.73;;;;;;;;;;4969992;28;20065;-64
2022/08/10 12:18:45;;;;;;;1.75;0.98;;;;;;;;;;4969229;28;20380;-64
2022/08/10 12:21:26;;;;;;;7.55;1.67;;;;;;;;;;4970271;28;20367;-64
2022/08/10 12:23:55;;;;;;;2.05;0.80;;;;;;;;;;4969288;28;20448;-64
2022/08/10 12:26:27;;;;;;;1.13;0.70;;;;;;;;;;4972131;28;20029;-67
2022/08/10 12:29:18;;;;;;;1.02;0.60;;;;;;;;;;4969245;28;20364;-64
2022/08/10 12:31:58;;;;;;;1.17;0.80;;;;;;;;;;4968883;28;20482;-64
2022/08/10 12:34:47;;;;;;;0.98;0.73;;;;;;;;;;4970926;28;20396;-65
2022/08/10 12:37:32;;;;;;;1.02;0.57;;;;;;;;;;4968760;28;20364;-64
2022/08/10 12:40:18;;;;;;;0.75;0.57;;;;;;;;;;4970490;28;20399;-66
2022/08/10 12:42:58;;;;;;;0.98;0.80;;;;;;;;;;4970321;28;20057;-64
2022/08/10 12:45:41;;;;;;;2.13;0.93;;;;;;;;;;4970704;28;20432;-70
2022/08/10 12:48:28;;;;;;;0.77;0.70;;;;;;;;;;4969205;28;20376;-64
2022/08/10 12:51:00;;;;;;;0.93;0.60;;;;;;;;;;4970495;28;20047;-64
2022/08/10 12:53:26;;;;;;;0.77;0.60;;;;;;;;;;4970519;28;20444;-66
2022/08/10 12:55:51;;;;;;;1.05;0.80;;;;;;;;;;4970378;28;20463;-66
2022/08/10 12:58:18;;;;;;;2.10;0.63;;;;;;;;;;4968754;28;20448;-66
2022/08/10 13:00:44;;;;;;;0.73;0.60;;;;;;;;;;4971181;28;20563;-67
2022/08/10 13:03:10;;;;;;;0.55;0.47;;;;;;;;;;4970042;28;20490;-66
2022/08/10 13:05:36;;;;;;;1.30;0.70;;;;;;;;;;4970675;28;20309;-67
2022/08/10 13:11:01;;;;;;;1.08;0.80;;;;;;;;;;4970764;28;20064;-66
2022/08/10 13:13:34;;;;;;;0.60;0.60;;;;;;;;;;4968187;28;20436;-67
2022/08/10 13:16:00;;;;;;;0.63;0.40;;;;;;;;;;4970222;28;20447;-66
2022/08/10 13:18:34;;;;;;;0.95;0.63;;;;;;;;;;4969983;28;20511;-70
2022/08/10 13:21:04;;;;;;;1.38;0.80;;;;;;;;;;4968600;28;20405;-66
2022/08/10 13:23:48;;;;;;;1.38;0.73;;;;;;;;;;4969942;28;20447;-66
2022/08/10 13:26:16;;;;;;;0.98;0.70;;;;;;;;;;4968499;28;20425;-66
2022/08/10 13:28:46;;;;;;;;;;;;;;;;;;4968402;28;20475;-66
2022/08/10 13:31:16;;;;;;;1.98;0.90;;;;;;;;;;4969943;28;20324;-66
2022/08/10 13:33:46;;;;;;;1.33;0.80;;;;;;;;;;4969575;28;20444;-67
2022/08/10 13:36:13;;;;;;;1.27;0.98;;;;;;;;;;4969488;28;20374;-66
2022/08/10 13:38:42;;;;;;;2.03;0.70;;;;;;;;;;4969573;28;20033;-71
2022/08/10 13:41:08;;;;;;;1.00;0.82;;;;;;;;;;4968486;28;20468;-66
2022/08/10 13:43:34;;;;;;;0.70;0.60;;;;;;;;;;4967835;28;20026;-69
2022/08/10 13:45:59;;;;;;;0.68;0.68;;;;;;;;;;4969360;28;20429;-67
2022/08/10 13:48:25;;;;;;;1.63;0.77;;;;;;;;;;4967921;28;20538;-64
2022/08/10 13:50:56;;;;;;;0.60;0.60;;;;;;;;;;4969279;28;20501;-69
2022/08/10 13:53:21;;;;;;;0.90;0.60;;;;;;;;;;4967664;28;20422;-66
2022/08/10 13:55:54;;;;;;;1.30;0.70;;;;;;;;;;4967629;28;20351;-66
2022/08/10 13:58:40;;;;;;;1.42;0.80;;;;;;;;;;4967484;28;20060;-66
2022/08/10 14:01:21;;;;;;;0.82;0.60;;;;;;;;;;4967993;28;20454;-66
2022/08/10 14:03:47;;;;;;;0.80;0.60;;;;;;;;;;4970297;28;20428;-66
2022/08/10 14:06:14;;;;;;;0.90;0.70;;;;;;;;;;4974033;28;20046;-66
2022/08/10 14:08:48;;;;;;;1.65;0.70;;;;;;;;;;4639608;28;10000900;-67
2022/08/10 14:11:17;;;;;;;0.55;0.52;;;;;;;;;;4967406;28;20385;-66
2022/08/10 14:13:52;;;;;;;0.77;0.77;;;;;;;;;;4967319;28;20452;-66
2022/08/10 14:16:17;;;;;;;1.02;0.93;;;;;;;;;;4967252;28;20341;-66
2022/08/10 14:18:44;;;;;;;1.00;0.70;;;;;;;;;;4967187;28;20029;-66
2022/08/10 14:21:10;;;;;;;0.55;0.43;;;;;;;;;;4968703;28;20419;-67
2022/08/10 14:23:45;;;;;;;1.27;0.85;;;;;;;;;;4968963;28;20097;-67
2022/08/10 14:26:11;;;;;;;1.17;0.65;;;;;;;;;;4968593;28;20052;-66
2022/08/10 14:28:45;;;;;;;0.60;0.60;;;;;;;;;;4966911;28;20483;-66
2022/08/10 14:31:12;;;;;;;1.20;0.75;;;;;;;;;;4966981;28;20349;-66
2022/08/10 14:33:41;;;;;;;1.13;0.70;;;;;;;;;;4968515;28;20483;-66
2022/08/10 14:36:08;;;;;;;0.70;0.57;;;;;;;;;;4970325;28;20444;-66
2022/08/10 14:38:36;;;;;;;1.02;0.70;;;;;;;;;;4968035;28;20356;-66
2022/08/10 14:41:03;;;;;;;0.80;0.60;;;;;;;;;;4966818;28;20395;-66
2022/08/10 14:43:38;;;;;;;0.55;0.55;;;;;;;;;;4966866;28;20502;-66
2022/08/10 14:46:06;;;;;;;1.25;0.70;;;;;;;;;;4968074;28;20177;-70
2022/08/10 14:48:37;;;;;;;2.07;0.70;;;;;;;;;;4968625;28;20414;-66
2022/08/10 14:51:03;;;;;;;1.17;0.65;;;;;;;;;;4966601;28;20329;-66
2022/08/10 14:53:33;;;;;;;1.00;0.77;;;;;;;;;;4966439;28;20386;-67
2022/08/10 14:56:05;;;;;;;1.10;0.70;;;;;;;;;;4967905;28;20037;-66
2022/08/10 14:58:51;;;;;;;0.90;0.80;;;;;;;;;;4967296;28;20502;-66
2022/08/10 15:01:18;;;;;;;0.80;0.60;;;;;;;;;;4968278;28;20065;-67
2022/08/10 15:03:47;;;;;;;1.65;0.57;;;;;;;;;;4966234;28;20322;-66
2022/08/10 15:06:15;;;;;;;1.42;0.90;;;;;;;;;;4966753;28;20420;-66
2022/08/10 15:08:43;;;;;;;1.33;0.77;;;;;;;;;;4966234;28;20616;-66
2022/08/10 15:11:09;;;;;;;0.82;0.70;;;;;;;;;;4966587;28;20511;-66
2022/08/10 15:13:35;;;;;;;0.80;0.47;;;;;;;;;;4966366;28;20501;-66
2022/08/10 15:16:03;;;;;;;1.00;0.88;;;;;;;;;;4965992;28;20460;-66
2022/08/10 15:18:29;;;;;;;;;;;;;;;;;;4966536;28;20687;-66
2022/08/10 15:20:57;;;;;;;0.95;0.80;;;;;;;;;;4966038;28;19960;-66